Time;durP1;ratioP1;P1;durP2;ratioP2;P2;SDS_P1;SDS_P2;PMS_P1;PMS_P2;Temp;Humidity;BMP_temperature;BMP_pressure;BME280_temperature;BME280_humidity;BME280_pressure;Samples;Min_cycle;Max_cycle;Signal;HPM_P1;HPM_P2
2021/05/06 00:01:12;;;;;;;;;;;19.80;41.00;;;;;;456895;253;1340;-44
2021/05/06 00:03:39;;;;;;;;;;;19.90;41.00;;;;;;469094;253;1385;-45
2021/05/06 00:05:55;;;;;;;;;;;19.90;41.00;;;;;;468920;254;1816;-44
2021/05/06 00:07:50;;;;;;;;;;;19.90;40.90;;;;;;469123;254;1540;-44
2021/05/06 00:10:12;;;;;;;;;;;20.00;40.90;;;;;;469315;253;2365;-44
2021/05/06 00:14:57;;;;;;;;;;;20.00;40.70;;;;;;470217;253;1082;-44
2021/05/06 00:31:22;;;;;;;;;;;20.20;40.50;;;;;;454590;253;1283;-45
2021/05/06 00:33:10;;;;;;;;;;;20.20;40.50;;;;;;469397;253;2211;-44
2021/05/06 00:35:11;;;;;;;;;;;20.20;40.40;;;;;;469798;252;2212;-45
2021/05/06 00:37:14;;;;;;;;;;;20.20;40.40;;;;;;469809;252;1081;-45
2021/05/06 00:39:17;;;;;;;;;;;20.30;40.40;;;;;;469609;253;1949;-44
2021/05/06 00:41:32;;;;;;;;;;;20.30;40.30;;;;;;469957;253;1885;-44
2021/05/06 00:43:54;;;;;;;;;;;20.30;40.30;;;;;;469332;253;2051;-45
2021/05/06 00:46:19;;;;;;;;;;;20.40;40.30;;;;;;469239;253;2241;-44
2021/05/06 00:55:14;;;;;;;;;;;20.40;40.20;;;;;;469712;253;2176;-45
2021/05/06 00:57:11;;;;;;;;;;;20.40;40.20;;;;;;469338;253;1894;-45
2021/05/06 00:59:30;;;;;;;;;;;20.40;40.20;;;;;;469595;253;2167;-45
2021/05/06 01:04:12;;;;;;;;;;;20.50;40.20;;;;;;447296;264;1150;-45
2021/05/06 01:06:11;;;;;;;;;;;20.50;40.10;;;;;;460130;253;1583;-45
2021/05/06 01:08:13;;;;;;;;;;;20.50;40.10;;;;;;470050;253;2289;-44
2021/05/06 01:10:32;;;;;;;;;;;20.40;40.10;;;;;;469674;253;2188;-44
2021/05/06 01:12:28;;;;;;;;;;;20.60;40.00;;;;;;469656;253;2272;-44
2021/05/06 01:14:29;;;;;;;;;;;20.40;40.30;;;;;;469991;252;1105;-45
2021/05/06 01:16:30;;;;;;;;;;;19.90;41.20;;;;;;469676;252;2136;-44
2021/05/06 01:18:32;;;;;;;;;;;19.50;42.20;;;;;;469775;252;1129;-44
2021/05/06 01:20:33;;;;;;;;;;;19.10;43.00;;;;;;469675;252;1344;-45
2021/05/06 01:22:34;;;;;;;;;;;18.90;43.50;;;;;;469825;252;1260;-44
2021/05/06 01:24:35;;;;;;;;;;;18.70;43.90;;;;;;469695;252;1320;-44
2021/05/06 01:26:40;;;;;;;;;;;18.60;44.30;;;;;;469970;252;1098;-44
2021/05/06 01:28:41;;;;;;;;;;;18.50;44.50;;;;;;469659;253;2142;-44
2021/05/06 01:30:43;;;;;;;;;;;18.40;44.70;;;;;;469654;253;1375;-44
2021/05/06 01:32:42;;;;;;;;;;;18.30;44.70;;;;;;469593;253;1516;-44
2021/05/06 01:34:44;;;;;;;;;;;18.30;45.00;;;;;;470160;253;2199;-44
2021/05/06 01:36:47;;;;;;;;;;;18.20;45.20;;;;;;469636;253;2007;-44
2021/05/06 01:38:59;;;;;;;;;;;18.10;45.20;;;;;;469565;253;1555;-44
2021/05/06 01:41:28;;;;;;;;;;;18.20;45.40;;;;;;469546;253;2009;-44
2021/05/06 01:43:23;;;;;;;;;;;18.10;45.40;;;;;;468825;253;1572;-44
2021/05/06 01:47:38;;;;;;;;;;;18.10;45.50;;;;;;469604;253;1471;-47
2021/05/06 01:49:52;;;;;;;;;;;18.10;45.40;;;;;;469534;253;1930;-44
2021/05/06 01:58:48;;;;;;;;;;;18.00;45.60;;;;;;469746;254;1437;-46
2021/05/06 02:00:50;;;;;;;;;;;18.00;45.70;;;;;;469616;253;2456;-46
2021/05/06 02:02:50;;;;;;;;;;;18.00;45.80;;;;;;469941;253;1261;-46
2021/05/06 02:04:51;;;;;;;;;;;17.90;45.90;;;;;;469834;252;1124;-46
2021/05/06 02:06:52;;;;;;;;;;;17.90;45.70;;;;;;470044;252;1095;-46
2021/05/06 02:08:54;;;;;;;;;;;17.90;45.80;;;;;;470079;252;1114;-46
2021/05/06 02:10:57;;;;;;;;;;;17.80;46.00;;;;;;469690;252;1278;-44
2021/05/06 02:12:57;;;;;;;;;;;17.80;46.20;;;;;;469641;253;1967;-44
2021/05/06 02:15:03;;;;;;;;;;;17.80;46.20;;;;;;469657;252;2157;-44
2021/05/06 02:16:59;;;;;;;;;;;17.80;46.10;;;;;;469512;253;1528;-44
2021/05/06 02:19:03;;;;;;;;;;;17.70;46.10;;;;;;469792;252;1117;-44
2021/05/06 02:21:02;;;;;;;;;;;17.70;46.10;;;;;;470000;253;1843;-44
2021/05/06 02:23:05;;;;;;;;;;;17.80;46.00;;;;;;470205;252;1073;-44
2021/05/06 02:25:05;;;;;;;;;;;17.80;45.90;;;;;;469809;253;2129;-44
2021/05/06 02:27:06;;;;;;;;;;;17.80;46.00;;;;;;469690;252;1191;-44
2021/05/06 02:29:07;;;;;;;;;;;17.70;46.00;;;;;;470034;252;1236;-44
2021/05/06 02:31:08;;;;;;;;;;;17.70;46.10;;;;;;470191;252;1057;-44
2021/05/06 02:33:10;;;;;;;;;;;17.70;46.20;;;;;;469937;252;1163;-44
2021/05/06 02:35:11;;;;;;;;;;;17.60;46.30;;;;;;470028;252;2144;-44
2021/05/06 02:37:12;;;;;;;;;;;17.70;46.20;;;;;;469732;252;1172;-44
2021/05/06 02:39:14;;;;;;;;;;;17.70;46.20;;;;;;470136;252;1098;-44
2021/05/06 02:41:15;;;;;;;;;;;17.60;46.10;;;;;;469691;252;1210;-44
2021/05/06 02:43:17;;;;;;;;;;;17.60;46.30;;;;;;469678;252;1204;-44
2021/05/06 02:45:18;;;;;;;;;;;17.60;46.40;;;;;;469881;252;1252;-44
2021/05/06 02:47:19;;;;;;;;;;;17.60;46.40;;;;;;469665;252;1342;-44
2021/05/06 02:49:22;;;;;;;;;;;17.60;46.30;;;;;;469896;252;1331;-44
2021/05/06 02:51:28;;;;;;;;;;;17.60;46.40;;;;;;469615;253;2154;-44
2021/05/06 02:53:26;;;;;;;;;;;17.60;46.30;;;;;;469560;253;1373;-44
2021/05/06 02:55:31;;;;;;;;;;;17.50;46.30;;;;;;469873;253;2152;-44
2021/05/06 02:57:35;;;;;;;;;;;17.50;46.40;;;;;;469446;250;2025;-44
2021/05/06 03:02:43;;;;;;;;;;;17.50;46.40;;;;;;469361;253;2386;-44
2021/05/06 03:04:02;;;;;;;;;;;17.50;46.30;;;;;;469784;253;1415;-47
2021/05/06 03:06:02;;;;;;;;;;;17.50;46.30;;;;;;469585;254;1930;-46
2021/05/06 03:08:10;;;;;;;;;;;17.60;46.30;;;;;;469786;252;1280;-46
2021/05/06 03:10:16;;;;;;;;;;;17.50;46.20;;;;;;469652;253;1423;-46
2021/05/06 03:12:23;;;;;;;;;;;17.60;46.20;;;;;;469446;253;2231;-46
2021/05/06 03:14:41;;;;;;;;;;;17.60;46.20;;;;;;469831;253;2251;-46
2021/05/06 03:22:39;;;;;;;;;;;17.60;46.30;;;;;;469581;253;1216;-47
2021/05/06 03:23:30;;;;;;;;;;;17.60;46.20;;;;;;468690;254;1289;-44
2021/05/06 03:25:31;;;;;;;;;;;17.50;46.20;;;;;;469702;252;1105;-44
2021/05/06 03:27:34;;;;;;;;;;;17.50;46.20;;;;;;469639;252;1248;-44
2021/05/06 03:29:37;;;;;;;;;;;17.50;46.30;;;;;;469647;253;1723;-44
2021/05/06 03:31:57;;;;;;;;;;;17.40;46.50;;;;;;469705;253;2206;-44
2021/05/06 03:41:36;;;;;;;;;;;17.70;46.00;;;;;;469558;253;2128;-44
2021/05/06 03:43:23;;;;;;;;;;;18.80;43.40;;;;;;469765;253;1082;-44
2021/05/06 03:48:19;;;;;;;;;;;19.10;42.60;;;;;;454973;253;1195;-44
2021/05/06 03:50:32;;;;;;;;;;;19.20;42.30;;;;;;469107;253;1731;-44
2021/05/06 04:16:13;;;;;;;;;;;19.80;41.00;;;;;;452725;253;2211;-44
2021/05/06 04:18:09;;;;;;;;;;;19.90;41.00;;;;;;469648;253;1534;-45
2021/05/06 04:27:09;;;;;;;;;;;19.90;40.70;;;;;;469811;253;1174;-44
2021/05/06 04:29:47;;;;;;;;;;;20.00;40.70;;;;;;469548;253;1816;-44
2021/05/06 04:36:12;;;;;;;;;;;20.00;40.60;;;;;;469746;253;2124;-44
2021/05/06 04:38:11;;;;;;;;;;;20.10;40.70;;;;;;469630;250;1500;-44
2021/05/06 04:40:15;;;;;;;;;;;20.10;40.60;;;;;;469609;252;1055;-44
2021/05/06 04:42:39;;;;;;;;;;;20.10;40.60;;;;;;469473;253;2294;-45
2021/05/06 04:54:19;;;;;;;;;;;20.20;40.40;;;;;;469837;253;1108;-44
2021/05/06 04:56:16;;;;;;;;;;;20.20;40.40;;;;;;468884;253;2207;-44
2021/05/06 04:58:45;;;;;;;;;;;20.20;40.30;;;;;;469437;253;2126;-44
2021/05/06 05:05:12;;;;;;;;;;;20.30;40.30;;;;;;469531;253;1087;-45
2021/05/06 05:07:16;;;;;;;;;;;20.30;40.30;;;;;;469630;252;1117;-44
2021/05/06 05:09:32;;;;;;;;;;;20.30;40.30;;;;;;469327;253;1790;-45
2021/05/06 05:11:46;;;;;;;;;;;20.30;40.30;;;;;;468746;253;1420;-44
2021/05/06 05:18:51;;;;;;;;;;;20.40;40.20;;;;;;469255;252;1212;-44
2021/05/06 05:20:47;;;;;;;;;;;20.40;40.20;;;;;;468774;253;1318;-44
2021/05/06 05:25:06;;;;;;;;;;;20.40;40.20;;;;;;469450;253;1119;-44
2021/05/06 05:27:07;;;;;;;;;;;20.40;40.10;;;;;;469245;252;2088;-44
2021/05/06 05:29:08;;;;;;;;;;;20.40;40.10;;;;;;469546;252;1102;-44
2021/05/06 05:31:09;;;;;;;;;;;20.40;40.10;;;;;;469363;252;1130;-44
2021/05/06 05:33:12;;;;;;;;;;;20.50;39.90;;;;;;469430;252;1148;-45
2021/05/06 05:35:15;;;;;;;;;;;20.30;40.30;;;;;;469292;253;2105;-44
2021/05/06 05:37:17;;;;;;;;;;;19.80;41.40;;;;;;469225;253;2199;-44
2021/05/06 05:39:22;;;;;;;;;;;19.30;42.30;;;;;;469327;253;1686;-45
2021/05/06 05:41:55;;;;;;;;;;;19.10;43.00;;;;;;469162;253;2502;-44
2021/05/06 05:43:59;;;;;;;;;;;18.90;43.50;;;;;;468594;253;2565;-44
2021/05/06 05:46:45;;;;;;;;;;;18.70;43.90;;;;;;469057;253;2307;-44
2021/05/06 05:55:31;;;;;;;;;;;18.20;45.00;;;;;;469225;253;1222;-44
2021/05/06 05:57:32;;;;;;;;;;;18.20;45.20;;;;;;469313;252;2191;-44
2021/05/06 05:59:34;;;;;;;;;;;18.10;45.20;;;;;;469338;252;1197;-44
2021/05/06 06:01:35;;;;;;;;;;;18.10;45.30;;;;;;469303;252;1444;-44
2021/05/06 06:03:36;;;;;;;;;;;18.10;45.50;;;;;;469279;252;1373;-44
2021/05/06 06:05:38;;;;;;;;;;;17.90;45.60;;;;;;469289;252;1327;-44
2021/05/06 06:07:39;;;;;;;;;;;18.00;45.60;;;;;;469157;252;2375;-44
2021/05/06 06:09:40;;;;;;;;;;;18.00;45.50;;;;;;469257;252;1185;-44
2021/05/06 06:11:41;;;;;;;;;;;18.00;45.50;;;;;;469289;252;1375;-44
2021/05/06 06:13:43;;;;;;;;;;;18.00;45.60;;;;;;469342;252;1211;-44
2021/05/06 06:15:54;;;;;;;;;;;17.90;45.50;;;;;;469139;252;1473;-44
2021/05/06 06:17:51;;;;;;;;;;;17.90;45.70;;;;;;469134;253;2196;-44
2021/05/06 06:19:53;;;;;;;;;;;17.90;45.70;;;;;;469358;252;1891;-44
2021/05/06 06:22:00;;;;;;;;;;;17.80;45.80;;;;;;469326;253;2141;-44
2021/05/06 06:23:54;;;;;;;;;;;17.80;45.80;;;;;;469124;253;1952;-44
2021/05/06 06:25:56;;;;;;;;;;;17.80;45.90;;;;;;469232;252;1192;-44
2021/05/06 06:27:57;;;;;;;;;;;17.80;46.00;;;;;;469239;252;1151;-44
2021/05/06 06:29:59;;;;;;;;;;;17.80;45.90;;;;;;469133;252;1076;-44
2021/05/06 06:32:01;;;;;;;;;;;17.80;45.80;;;;;;469260;252;2208;-44
2021/05/06 06:34:01;;;;;;;;;;;17.80;45.90;;;;;;469190;252;1473;-44
2021/05/06 06:36:02;;;;;;;;;;;17.80;46.00;;;;;;469100;252;1236;-44
2021/05/06 06:38:03;;;;;;;;;;;17.80;45.90;;;;;;469320;252;2255;-44
2021/05/06 06:40:05;;;;;;;;;;;17.80;45.90;;;;;;469104;252;1220;-44
2021/05/06 06:42:07;;;;;;;;;;;17.80;45.90;;;;;;469098;252;1170;-44
2021/05/06 06:44:07;;;;;;;;;;;17.70;45.90;;;;;;469084;252;2057;-44
2021/05/06 06:46:09;;;;;;;;;;;17.70;46.00;;;;;;469194;252;1186;-44
2021/05/06 06:48:12;;;;;;;;;;;17.70;46.10;;;;;;469280;252;1372;-44
2021/05/06 06:50:11;;;;;;;;;;;17.70;46.10;;;;;;469173;253;1945;-44
2021/05/06 06:52:12;;;;;;;;;;;17.70;46.10;;;;;;469224;252;1191;-44
2021/05/06 06:54:14;;;;;;;;;;;17.70;46.10;;;;;;469297;252;1167;-44
2021/05/06 06:56:15;;;;;;;;;;;17.60;46.10;;;;;;469043;252;2195;-44
2021/05/06 06:58:16;;;;;;;;;;;17.60;46.00;;;;;;468999;252;1328;-44
2021/05/06 07:00:18;;;;;;;;;;;17.60;46.20;;;;;;468988;251;1310;-44
2021/05/06 07:02:19;;;;;;;;;;;17.60;46.20;;;;;;469100;252;1096;-44
2021/05/06 07:04:20;;;;;;;;;;;17.60;46.10;;;;;;469031;252;1112;-44
2021/05/06 07:06:21;;;;;;;;;;;17.60;46.10;;;;;;468912;252;1304;-44
2021/05/06 07:08:25;;;;;;;;;;;17.60;46.30;;;;;;469148;252;1276;-44
2021/05/06 07:10:24;;;;;;;;;;;17.50;46.20;;;;;;469144;253;2028;-44
2021/05/06 07:12:25;;;;;;;;;;;17.50;46.20;;;;;;469274;252;1241;-44
2021/05/06 07:14:28;;;;;;;;;;;17.50;46.20;;;;;;469088;252;1112;-44
2021/05/06 07:16:28;;;;;;;;;;;17.50;46.30;;;;;;469526;252;2203;-44
2021/05/06 07:18:30;;;;;;;;;;;17.50;46.30;;;;;;469161;252;1190;-44
2021/05/06 07:20:31;;;;;;;;;;;17.50;46.20;;;;;;469436;252;1142;-44
2021/05/06 07:22:32;;;;;;;;;;;17.60;46.20;;;;;;469161;252;1087;-44
2021/05/06 07:24:34;;;;;;;;;;;17.50;46.20;;;;;;469133;252;1096;-44
2021/05/06 07:26:35;;;;;;;;;;;17.60;46.10;;;;;;469113;252;1274;-44
2021/05/06 07:28:36;;;;;;;;;;;17.60;46.00;;;;;;469184;252;1216;-44
2021/05/06 07:30:38;;;;;;;;;;;17.50;46.00;;;;;;469072;252;1109;-44
2021/05/06 07:32:40;;;;;;;;;;;17.50;46.10;;;;;;469228;252;1081;-44
2021/05/06 07:34:40;;;;;;;;;;;17.50;46.00;;;;;;469214;250;1346;-44
2021/05/06 07:36:41;;;;;;;;;;;17.50;46.10;;;;;;468863;252;2199;-44
2021/05/06 07:38:43;;;;;;;;;;;17.50;46.20;;;;;;468948;252;1380;-44
2021/05/06 07:40:44;;;;;;;;;;;17.40;46.20;;;;;;469086;252;1298;-44
2021/05/06 07:42:45;;;;;;;;;;;17.50;46.10;;;;;;469045;252;1104;-44
2021/05/06 07:44:47;;;;;;;;;;;17.50;46.20;;;;;;468875;252;1206;-44
2021/05/06 07:46:48;;;;;;;;;;;17.50;46.10;;;;;;468869;252;1517;-44
2021/05/06 07:48:49;;;;;;;;;;;17.40;46.30;;;;;;468930;252;1302;-44
2021/05/06 07:50:50;;;;;;;;;;;17.40;46.30;;;;;;469432;252;1283;-44
2021/05/06 07:52:54;;;;;;;;;;;17.40;46.40;;;;;;469140;250;1096;-44
2021/05/06 07:54:54;;;;;;;;;;;17.40;46.30;;;;;;468920;253;2103;-44
2021/05/06 07:56:54;;;;;;;;;;;17.70;45.60;;;;;;469164;252;2232;-44
2021/05/06 07:58:56;;;;;;;;;;;18.20;44.60;;;;;;469570;252;1201;-44
2021/05/06 08:00:58;;;;;;;;;;;18.50;43.80;;;;;;468924;252;1347;-44
2021/05/06 08:02:59;;;;;;;;;;;18.70;43.30;;;;;;468922;252;1271;-44
2021/05/06 08:05:00;;;;;;;;;;;18.90;42.90;;;;;;468909;252;1169;-44
2021/05/06 08:07:01;;;;;;;;;;;19.00;42.50;;;;;;469235;250;1258;-44
2021/05/06 08:09:02;;;;;;;;;;;19.10;42.30;;;;;;469122;252;1312;-44
2021/05/06 08:11:05;;;;;;;;;;;19.20;42.10;;;;;;469101;252;1121;-44
2021/05/06 08:13:05;;;;;;;;;;;19.30;42.00;;;;;;469019;252;2427;-45
2021/05/06 08:15:07;;;;;;;;;;;19.30;41.80;;;;;;469053;252;1233;-45
2021/05/06 08:17:08;;;;;;;;;;;19.40;41.70;;;;;;468964;252;2220;-44
2021/05/06 08:19:09;;;;;;;;;;;19.40;41.50;;;;;;469139;252;1172;-44
2021/05/06 08:21:11;;;;;;;;;;;19.50;41.50;;;;;;469044;252;1087;-44
2021/05/06 08:23:12;;;;;;;;;;;19.50;41.40;;;;;;469095;252;1428;-44
2021/05/06 08:25:13;;;;;;;;;;;19.60;41.40;;;;;;469103;252;1141;-44
2021/05/06 08:27:15;;;;;;;;;;;19.60;41.30;;;;;;469067;252;1270;-44
2021/05/06 08:29:16;;;;;;;;;;;19.60;41.20;;;;;;469058;252;1128;-45
2021/05/06 08:31:17;;;;;;;;;;;19.70;41.10;;;;;;468901;252;1312;-44
2021/05/06 08:33:18;;;;;;;;;;;19.70;41.00;;;;;;468730;252;1288;-44
2021/05/06 08:35:20;;;;;;;;;;;19.70;41.00;;;;;;469316;252;1175;-45
2021/05/06 08:37:21;;;;;;;;;;;19.80;40.90;;;;;;469231;252;2191;-45
2021/05/06 08:39:22;;;;;;;;;;;19.80;40.80;;;;;;469024;252;1146;-45
2021/05/06 08:41:23;;;;;;;;;;;19.80;40.80;;;;;;468971;252;1231;-44
2021/05/06 08:43:28;;;;;;;;;;;19.90;40.80;;;;;;469853;252;1232;-44
2021/05/06 08:45:31;;;;;;;;;;;19.90;40.70;;;;;;469116;253;2151;-45
2021/05/06 08:47:28;;;;;;;;;;;19.90;40.70;;;;;;469145;253;1401;-44
2021/05/06 08:49:29;;;;;;;;;;;19.90;40.60;;;;;;468707;252;1212;-45
2021/05/06 08:51:30;;;;;;;;;;;20.00;40.60;;;;;;468823;252;1433;-45
2021/05/06 08:53:31;;;;;;;;;;;20.00;40.60;;;;;;469059;252;1329;-45
2021/05/06 08:55:34;;;;;;;;;;;20.00;40.50;;;;;;468957;252;1227;-45
2021/05/06 08:57:34;;;;;;;;;;;20.00;40.50;;;;;;468937;252;2207;-45
2021/05/06 08:59:35;;;;;;;;;;;20.00;40.40;;;;;;468881;252;1110;-44
2021/05/06 09:01:37;;;;;;;;;;;20.00;40.40;;;;;;468985;252;1283;-45
2021/05/06 09:03:38;;;;;;;;;;;20.10;40.40;;;;;;469202;252;1207;-44
2021/05/06 09:05:39;;;;;;;;;;;20.10;40.30;;;;;;469170;252;1210;-44
2021/05/06 09:07:41;;;;;;;;;;;20.10;40.30;;;;;;469546;252;1337;-44
2021/05/06 09:09:42;;;;;;;;;;;20.20;40.30;;;;;;469103;252;1100;-44
2021/05/06 09:11:44;;;;;;;;;;;20.10;40.20;;;;;;469021;252;1330;-44
2021/05/06 09:13:44;;;;;;;;;;;20.20;40.30;;;;;;469594;252;1289;-45
2021/05/06 09:15:46;;;;;;;;;;;20.20;40.20;;;;;;469481;252;1149;-45
2021/05/06 09:17:47;;;;;;;;;;;20.20;40.10;;;;;;469056;250;2202;-44
2021/05/06 09:19:48;;;;;;;;;;;20.20;40.10;;;;;;468986;252;1156;-45
2021/05/06 09:21:49;;;;;;;;;;;20.20;40.10;;;;;;469204;252;1414;-45
2021/05/06 09:23:53;;;;;;;;;;;20.30;40.10;;;;;;469109;252;1227;-44
2021/05/06 09:25:52;;;;;;;;;;;20.30;40.00;;;;;;468980;253;2265;-44
2021/05/06 09:27:53;;;;;;;;;;;20.30;40.00;;;;;;469147;252;1153;-45
2021/05/06 09:29:55;;;;;;;;;;;20.30;40.00;;;;;;468927;252;1490;-44
2021/05/06 09:31:56;;;;;;;;;;;20.30;40.00;;;;;;469108;252;1314;-44
2021/05/06 09:33:57;;;;;;;;;;;20.40;40.00;;;;;;469328;252;1170;-44
2021/05/06 09:35:58;;;;;;;;;;;20.40;39.90;;;;;;468987;252;1230;-44
2021/05/06 09:38:00;;;;;;;;;;;20.40;39.90;;;;;;469063;252;2211;-44
2021/05/06 09:40:02;;;;;;;;;;;20.40;39.90;;;;;;469108;252;1331;-44
2021/05/06 09:42:02;;;;;;;;;;;20.40;39.90;;;;;;469305;252;1338;-44
2021/05/06 09:44:03;;;;;;;;;;;20.40;39.80;;;;;;469122;252;1209;-45
2021/05/06 09:46:05;;;;;;;;;;;20.40;39.80;;;;;;468933;252;1367;-44
2021/05/06 09:48:06;;;;;;;;;;;20.40;39.80;;;;;;468975;252;1159;-44
2021/05/06 09:50:07;;;;;;;;;;;20.40;39.80;;;;;;468806;252;1120;-44
2021/05/06 09:52:09;;;;;;;;;;;20.50;39.80;;;;;;468380;252;1282;-45
2021/05/06 09:54:10;;;;;;;;;;;20.50;39.80;;;;;;468948;252;1097;-45
2021/05/06 09:56:11;;;;;;;;;;;20.50;39.80;;;;;;469017;252;1276;-45
2021/05/06 09:58:13;;;;;;;;;;;20.60;39.70;;;;;;469001;252;2199;-45
2021/05/06 10:00:14;;;;;;;;;;;20.40;39.70;;;;;;469090;252;1155;-44
2021/05/06 10:02:17;;;;;;;;;;;20.10;40.60;;;;;;468977;252;1307;-44
2021/05/06 10:04:17;;;;;;;;;;;19.50;41.50;;;;;;468916;253;2065;-44
2021/05/06 10:06:19;;;;;;;;;;;19.20;42.50;;;;;;468958;252;1350;-44
2021/05/06 10:08:19;;;;;;;;;;;19.00;43.10;;;;;;468932;250;2226;-44
2021/05/06 10:10:21;;;;;;;;;;;18.80;43.50;;;;;;469049;252;1198;-44
2021/05/06 10:12:22;;;;;;;;;;;18.70;43.70;;;;;;468985;252;1185;-44
2021/05/06 10:14:23;;;;;;;;;;;18.60;43.90;;;;;;469020;252;1126;-44
2021/05/06 10:16:24;;;;;;;;;;;18.50;44.10;;;;;;468768;252;1219;-44
2021/05/06 10:18:26;;;;;;;;;;;18.60;44.10;;;;;;468846;252;2203;-44
2021/05/06 10:20:27;;;;;;;;;;;18.50;44.20;;;;;;468880;252;1112;-44
2021/05/06 10:22:28;;;;;;;;;;;18.40;44.30;;;;;;469018;252;1197;-44
2021/05/06 10:24:30;;;;;;;;;;;18.40;44.50;;;;;;469005;252;1146;-44
2021/05/06 10:26:31;;;;;;;;;;;18.50;44.20;;;;;;468926;252;1227;-44
2021/05/06 10:28:32;;;;;;;;;;;19.00;43.40;;;;;;469114;252;1117;-44
2021/05/06 10:30:33;;;;;;;;;;;19.30;42.50;;;;;;468936;252;1156;-44
2021/05/06 10:32:35;;;;;;;;;;;19.70;41.70;;;;;;468862;252;1187;-44
2021/05/06 10:34:36;;;;;;;;;;;20.00;41.00;;;;;;468726;252;1496;-44
2021/05/06 10:36:37;;;;;;;;;;;20.20;40.60;;;;;;468962;252;1285;-44
2021/05/06 10:38:39;;;;;;;;;;;20.30;40.30;;;;;;469658;252;2202;-44
2021/05/06 10:40:41;;;;;;;;;;;20.40;40.10;;;;;;468872;252;1122;-44
2021/05/06 10:42:41;;;;;;;;;;;20.50;39.90;;;;;;468779;253;2394;-44
2021/05/06 10:44:43;;;;;;;;;;;20.60;39.80;;;;;;468880;252;1137;-44
2021/05/06 10:46:44;;;;;;;;;;;20.60;39.60;;;;;;469029;252;1297;-44
2021/05/06 10:48:45;;;;;;;;;;;20.70;39.50;;;;;;468990;252;1242;-44
2021/05/06 10:50:47;;;;;;;;;;;20.70;39.40;;;;;;468957;252;1324;-44
2021/05/06 10:52:49;;;;;;;;;;;20.80;39.40;;;;;;469099;252;1344;-44
2021/05/06 10:54:51;;;;;;;;;;;20.80;39.20;;;;;;469308;253;2051;-44
2021/05/06 10:56:51;;;;;;;;;;;20.90;39.20;;;;;;469069;253;2114;-44
2021/05/06 10:58:53;;;;;;;;;;;20.90;39.10;;;;;;468934;252;2199;-44
2021/05/06 11:00:54;;;;;;;;;;;20.90;39.10;;;;;;468813;252;1150;-44
2021/05/06 11:02:57;;;;;;;;;;;21.00;39.00;;;;;;468889;252;1226;-44
2021/05/06 11:04:57;;;;;;;;;;;21.00;38.90;;;;;;468583;254;2091;-44
2021/05/06 11:06:58;;;;;;;;;;;21.00;38.90;;;;;;468887;252;1106;-44
2021/05/06 11:08:59;;;;;;;;;;;21.00;38.80;;;;;;468830;252;1210;-44
2021/05/06 11:11:01;;;;;;;;;;;21.10;38.90;;;;;;468843;252;1422;-44
2021/05/06 11:13:02;;;;;;;;;;;21.10;38.70;;;;;;468980;252;1292;-44
2021/05/06 11:15:04;;;;;;;;;;;21.20;38.60;;;;;;469078;252;1156;-44
2021/05/06 11:17:05;;;;;;;;;;;21.20;38.60;;;;;;468939;252;1191;-44
2021/05/06 11:19:06;;;;;;;;;;;21.20;38.50;;;;;;468992;252;2204;-44
2021/05/06 11:21:07;;;;;;;;;;;21.20;38.50;;;;;;469024;252;1253;-44
2021/05/06 11:23:09;;;;;;;;;;;21.30;38.60;;;;;;469058;252;1115;-44
2021/05/06 11:25:10;;;;;;;;;;;21.30;38.50;;;;;;468922;252;1307;-44
2021/05/06 11:27:13;;;;;;;;;;;21.30;38.60;;;;;;468746;252;1149;-44
2021/05/06 11:29:14;;;;;;;;;;;21.30;38.50;;;;;;469440;252;861;-44
2021/05/06 11:31:15;;;;;;;;;;;21.30;38.50;;;;;;469163;252;1139;-44
2021/05/06 11:33:16;;;;;;;;;;;21.40;38.40;;;;;;468981;252;1197;-44
2021/05/06 11:35:18;;;;;;;;;;;21.40;38.40;;;;;;468928;252;1201;-44
2021/05/06 11:37:19;;;;;;;;;;;21.40;38.40;;;;;;469080;252;1234;-44
2021/05/06 11:39:20;;;;;;;;;;;21.50;38.30;;;;;;469136;252;2186;-44
2021/05/06 11:41:24;;;;;;;;;;;21.50;38.30;;;;;;468758;252;1523;-44
2021/05/06 11:43:24;;;;;;;;;;;21.50;38.30;;;;;;468727;253;1639;-44
2021/05/06 11:45:27;;;;;;;;;;;21.50;38.30;;;;;;468976;252;1120;-44
2021/05/06 11:47:26;;;;;;;;;;;21.50;38.10;;;;;;468855;253;2248;-44
2021/05/06 11:49:28;;;;;;;;;;;21.50;38.10;;;;;;468895;252;1092;-44
2021/05/06 11:51:29;;;;;;;;;;;21.60;38.10;;;;;;469144;252;1150;-44
2021/05/06 11:53:31;;;;;;;;;;;21.50;38.10;;;;;;468983;252;1248;-44
2021/05/06 11:55:32;;;;;;;;;;;21.50;38.10;;;;;;468941;252;1220;-44
2021/05/06 11:57:33;;;;;;;;;;;21.60;38.10;;;;;;468802;252;1229;-44
2021/05/06 11:59:34;;;;;;;;;;;21.60;38.00;;;;;;468992;252;2141;-44
2021/05/06 12:01:36;;;;;;;;;;;21.60;38.00;;;;;;468949;250;1384;-44
2021/05/06 12:03:37;;;;;;;;;;;21.60;38.00;;;;;;468930;252;1285;-44
2021/05/06 12:05:39;;;;;;;;;;;21.70;38.00;;;;;;469025;252;1213;-44
2021/05/06 12:07:40;;;;;;;;;;;21.70;37.90;;;;;;469214;252;1103;-44
2021/05/06 12:09:41;;;;;;;;;;;21.70;38.00;;;;;;468999;252;1125;-44
2021/05/06 12:11:43;;;;;;;;;;;21.70;37.90;;;;;;468965;252;1321;-44
2021/05/06 12:13:44;;;;;;;;;;;21.80;37.90;;;;;;469000;252;2146;-44
2021/05/06 12:15:45;;;;;;;;;;;21.70;37.90;;;;;;468993;252;1247;-44
2021/05/06 12:17:46;;;;;;;;;;;21.70;37.90;;;;;;469083;252;1284;-44
2021/05/06 12:19:48;;;;;;;;;;;21.70;37.90;;;;;;468923;252;2200;-44
2021/05/06 12:21:51;;;;;;;;;;;21.80;37.90;;;;;;469037;252;1252;-44
2021/05/06 12:23:50;;;;;;;;;;;21.80;37.90;;;;;;468903;253;2156;-44
2021/05/06 12:25:51;;;;;;;;;;;21.80;37.90;;;;;;468967;252;1149;-44
2021/05/06 12:27:53;;;;;;;;;;;21.80;37.90;;;;;;469043;252;1180;-44
2021/05/06 12:29:54;;;;;;;;;;;21.80;37.90;;;;;;468896;252;1095;-44
2021/05/06 12:31:56;;;;;;;;;;;21.80;37.90;;;;;;468889;252;1313;-44
2021/05/06 12:33:58;;;;;;;;;;;21.80;37.90;;;;;;468906;252;1244;-44
2021/05/06 12:35:58;;;;;;;;;;;21.90;37.80;;;;;;468872;252;2315;-44
2021/05/06 12:38:00;;;;;;;;;;;21.90;37.80;;;;;;468973;252;1213;-44
2021/05/06 12:40:03;;;;;;;;;;;21.90;37.80;;;;;;468983;252;2147;-44
2021/05/06 12:42:04;;;;;;;;;;;21.90;37.80;;;;;;468868;252;2056;-44
2021/05/06 12:44:04;;;;;;;;;;;21.90;37.70;;;;;;469058;252;2167;-44
2021/05/06 12:46:05;;;;;;;;;;;21.90;37.80;;;;;;469012;252;1140;-44
2021/05/06 12:48:06;;;;;;;;;;;21.90;37.80;;;;;;468924;252;1196;-44
2021/05/06 12:50:08;;;;;;;;;;;21.90;37.70;;;;;;469075;252;1113;-44
2021/05/06 12:52:09;;;;;;;;;;;21.90;37.70;;;;;;469203;252;1249;-44
2021/05/06 12:54:11;;;;;;;;;;;22.00;37.70;;;;;;469057;252;1305;-44
2021/05/06 12:56:12;;;;;;;;;;;22.00;37.70;;;;;;468996;252;1341;-44
2021/05/06 12:58:13;;;;;;;;;;;22.00;37.70;;;;;;468953;252;1105;-44
2021/05/06 13:00:14;;;;;;;;;;;22.00;37.70;;;;;;468807;252;2147;-44
2021/05/06 13:02:16;;;;;;;;;;;22.00;37.70;;;;;;468787;252;1365;-44
2021/05/06 13:04:17;;;;;;;;;;;22.00;37.70;;;;;;468986;252;1975;-44
2021/05/06 13:06:18;;;;;;;;;;;22.00;37.70;;;;;;469085;252;1171;-44
2021/05/06 13:08:21;;;;;;;;;;;22.00;37.70;;;;;;469838;252;876;-44
2021/05/06 13:10:21;;;;;;;;;;;22.00;37.70;;;;;;469800;253;2125;-44
2021/05/06 13:12:23;;;;;;;;;;;22.10;37.60;;;;;;469413;252;1213;-44
2021/05/06 13:14:24;;;;;;;;;;;22.10;37.60;;;;;;469832;252;1234;-44
2021/05/06 13:16:25;;;;;;;;;;;22.10;37.50;;;;;;469835;252;1120;-44
2021/05/06 13:18:26;;;;;;;;;;;22.20;37.50;;;;;;468929;252;2187;-44
2021/05/06 13:20:28;;;;;;;;;;;22.10;37.50;;;;;;469025;252;1317;-44
2021/05/06 13:22:29;;;;;;;;;;;22.20;37.50;;;;;;469045;252;1200;-44
2021/05/06 13:24:30;;;;;;;;;;;22.20;37.60;;;;;;469016;252;1382;-44
2021/05/06 13:26:32;;;;;;;;;;;22.10;37.50;;;;;;468952;252;1266;-44
2021/05/06 13:28:33;;;;;;;;;;;22.10;37.60;;;;;;468876;252;1266;-44
2021/05/06 13:30:35;;;;;;;;;;;22.10;37.60;;;;;;468913;249;1340;-44
2021/05/06 13:32:36;;;;;;;;;;;22.10;37.50;;;;;;468896;252;1158;-44
2021/05/06 13:34:37;;;;;;;;;;;22.20;37.60;;;;;;468855;252;1185;-44
2021/05/06 13:36:38;;;;;;;;;;;22.20;37.50;;;;;;468974;252;1310;-44
2021/05/06 13:38:40;;;;;;;;;;;22.20;37.60;;;;;;469051;252;2155;-44
2021/05/06 13:40:41;;;;;;;;;;;22.20;37.70;;;;;;469049;252;1351;-44
2021/05/06 13:42:42;;;;;;;;;;;22.20;37.60;;;;;;469122;252;1183;-44
2021/05/06 13:44:44;;;;;;;;;;;22.20;37.50;;;;;;469052;252;1128;-44
2021/05/06 13:46:45;;;;;;;;;;;22.20;37.50;;;;;;469080;252;1611;-44
2021/05/06 13:48:46;;;;;;;;;;;22.30;37.50;;;;;;468934;252;1249;-44
2021/05/06 13:50:48;;;;;;;;;;;22.20;37.50;;;;;;468822;252;1147;-44
2021/05/06 13:52:49;;;;;;;;;;;22.20;37.50;;;;;;468878;252;1214;-44
2021/05/06 13:54:50;;;;;;;;;;;22.20;37.60;;;;;;469029;252;1360;-44
2021/05/06 13:56:51;;;;;;;;;;;22.20;37.50;;;;;;468943;252;1473;-44
2021/05/06 13:58:53;;;;;;;;;;;22.20;37.50;;;;;;468952;252;2148;-44
2021/05/06 14:00:54;;;;;;;;;;;22.30;37.50;;;;;;469088;252;1612;-44